createdAt,value
2019-01-08T19:33:24.669Z,100218
2019-01-08T19:38:48.615Z,100230
2019-01-08T19:44:21.002Z,100228
2019-01-08T19:49:43.665Z,100217
2019-01-08T19:55:07.707Z,100220
2019-01-08T20:00:41.428Z,100228
2019-01-08T20:06:04.389Z,100228
2019-01-08T20:11:28.348Z,100242
2019-01-08T20:17:07.214Z,100247
2019-01-08T20:22:30.648Z,100258
2019-01-08T20:27:54.258Z,100264
2019-01-08T20:33:29.033Z,100287
2019-01-08T20:39:03.360Z,100292
2019-01-08T20:44:37.951Z,100274
2019-01-08T20:50:09.733Z,100278
2019-01-08T20:55:42.644Z,100284
2019-01-08T21:01:15.512Z,100280
2019-01-08T21:06:50.115Z,100275
2019-01-08T21:12:15.565Z,100283
2019-01-08T21:17:48.891Z,100277
2019-01-08T21:23:11.603Z,100276
2019-01-08T21:28:34.733Z,100274
2019-01-08T21:34:07.829Z,100275
2019-01-08T21:39:30.533Z,100283
2019-01-08T21:44:54.050Z,100288
2019-01-08T21:50:20.353Z,100281
2019-01-08T21:55:51.919Z,100294
2019-01-08T22:01:15.651Z,100288
2019-01-08T22:06:47.958Z,100290
2019-01-08T22:12:20.772Z,100308
2019-01-08T22:17:44.303Z,100327
2019-01-08T22:23:09.286Z,100320
2019-01-08T22:28:42.484Z,100315
2019-01-08T22:34:09.189Z,100306
2019-01-08T22:39:32.600Z,100303
2019-01-08T22:45:05.556Z,100304
2019-01-08T22:50:29.000Z,100292
2019-01-08T22:56:01.296Z,100299
2019-01-08T23:01:24.525Z,100299
2019-01-08T23:06:58.665Z,100297
2019-01-08T23:12:22.729Z,100318
2019-01-08T23:17:56.436Z,100301
2019-01-08T23:23:21.856Z,100305
2019-01-08T23:28:57.610Z,100293
2019-01-08T23:34:20.324Z,100278
2019-01-08T23:39:53.708Z,100293
2019-01-08T23:45:19.119Z,100296
2019-01-08T23:50:52.689Z,100291
2019-01-08T23:56:16.325Z,100283
